createdAt,value
2023-03-13T00:01:16.838Z,9.30
2023-03-13T00:03:44.462Z,9.26
2023-03-13T00:06:12.091Z,9.34
2023-03-13T00:08:39.802Z,9.44
2023-03-13T00:11:10.079Z,9.39
2023-03-13T00:13:37.999Z,9.27
2023-03-13T00:16:14.429Z,9.20
2023-03-13T00:18:52.661Z,9.17
2023-03-13T00:21:23.499Z,9.10
2023-03-13T00:23:51.599Z,9.15
2023-03-13T00:26:21.705Z,9.27
2023-03-13T00:28:50.998Z,9.30
2023-03-13T00:31:30.659Z,9.13
2023-03-13T00:34:01.052Z,9.19
2023-03-13T00:36:31.234Z,9.14
2023-03-13T00:38:59.525Z,9.12
2023-03-13T00:41:32.973Z,9.24
2023-03-13T00:44:00.701Z,9.07
2023-03-13T00:46:29.837Z,9.13
2023-03-13T00:48:58.051Z,9.09
2023-03-13T00:51:27.431Z,9.20
2023-03-13T00:53:57.173Z,9.07
2023-03-13T00:56:24.530Z,8.96
2023-03-13T00:58:52.432Z,8.93
2023-03-13T01:01:24.575Z,8.91
2023-03-13T01:03:59.481Z,8.77
2023-03-13T01:06:31.193Z,8.90
2023-03-13T01:09:00.093Z,8.96
2023-03-13T01:11:30.392Z,8.82
2023-03-13T01:14:00.294Z,8.94
2023-03-13T01:16:30.276Z,8.89
2023-03-13T01:19:01.505Z,8.89
2023-03-13T01:21:29.325Z,8.92
2023-03-13T01:23:58.061Z,9.01
2023-03-13T01:26:26.387Z,9.09
2023-03-13T01:28:55.277Z,9.05
2023-03-13T01:31:34.496Z,9.06
2023-03-13T01:34:05.466Z,9.17
2023-03-13T01:36:33.772Z,9.07
2023-03-13T01:39:01.748Z,9.06
2023-03-13T01:41:31.231Z,9.14
2023-03-13T01:43:59.197Z,9.10
2023-03-13T01:46:32.992Z,9.14
2023-03-13T01:49:21.030Z,9.23
2023-03-13T01:52:13.790Z,9.30
2023-03-13T01:54:52.748Z,9.08
2023-03-13T01:57:29.587Z,9.22
2023-03-13T02:00:01.597Z,9.15
2023-03-13T02:02:30.546Z,9.11
2023-03-13T02:05:02.038Z,9.17
2023-03-13T02:07:41.768Z,9.30
2023-03-13T02:10:11.011Z,9.16
2023-03-13T02:12:39.719Z,9.09
2023-03-13T02:15:16.988Z,9.00
2023-03-13T02:17:45.692Z,9.02
2023-03-13T02:20:14.942Z,8.96
2023-03-13T02:23:34.957Z,8.95
2023-03-13T02:26:03.593Z,8.84
2023-03-13T02:28:39.144Z,8.84
2023-03-13T02:31:10.795Z,8.77
2023-03-13T02:33:41.459Z,8.78
2023-03-13T02:36:19.662Z,8.76
2023-03-13T02:38:55.266Z,8.70
2023-03-13T02:41:23.238Z,8.66
2023-03-13T02:43:51.446Z,8.64
2023-03-13T02:46:20.804Z,8.69
2023-03-13T02:48:54.800Z,8.70
2023-03-13T02:51:39.609Z,8.69
2023-03-13T02:54:12.231Z,8.57
2023-03-13T02:56:42.111Z,8.60
2023-03-13T02:59:11.129Z,8.58
2023-03-13T03:01:46.235Z,8.56
2023-03-13T03:04:13.699Z,8.39
2023-03-13T03:06:41.355Z,8.33
2023-03-13T03:09:09.034Z,8.37
2023-03-13T03:11:38.698Z,8.14
2023-03-13T03:14:11.521Z,8.19
2023-03-13T03:16:43.811Z,8.16
2023-03-13T03:19:11.522Z,8.10
2023-03-13T03:21:39.176Z,8.29
2023-03-13T03:24:06.887Z,8.31
2023-03-13T03:26:34.324Z,8.15
2023-03-13T03:29:03.957Z,8.21
2023-03-13T03:31:32.016Z,8.16
2023-03-13T03:34:00.135Z,8.16
2023-03-13T03:36:29.755Z,8.10
2023-03-13T03:38:57.317Z,8.11
2023-03-13T03:41:30.862Z,7.89
2023-03-13T03:43:58.951Z,7.79
2023-03-13T03:46:33.381Z,8.03
2023-03-13T03:49:00.951Z,8.07
2023-03-13T03:51:28.387Z,7.91
2023-03-13T03:53:56.004Z,7.78
2023-03-13T03:56:23.578Z,7.89
2023-03-13T03:58:55.755Z,7.89
2023-03-13T04:01:41.513Z,8.04
2023-03-13T04:04:09.727Z,8.12
2023-03-13T04:06:39.015Z,8.32
2023-03-13T04:09:08.480Z,8.22
2023-03-13T04:11:37.720Z,8.18
2023-03-13T04:14:07.155Z,8.18
2023-03-13T04:16:34.960Z,8.41
2023-03-13T04:19:02.718Z,8.33
2023-03-13T04:21:31.163Z,8.34
2023-03-13T04:24:09.586Z,8.43
2023-03-13T04:26:39.040Z,8.32
2023-03-13T04:29:06.683Z,8.54
2023-03-13T04:32:12.900Z,8.63
2023-03-13T04:35:05.223Z,8.70
2023-03-13T04:37:51.135Z,8.73
2023-03-13T04:40:37.083Z,8.76
2023-03-13T04:43:25.591Z,8.76
2023-03-13T04:46:11.745Z,8.71
2023-03-13T04:49:08.837Z,8.63
2023-03-13T04:52:04.867Z,8.79
2023-03-13T04:54:51.208Z,8.73
2023-03-13T04:57:43.450Z,8.65
2023-03-13T05:00:33.733Z,8.90
2023-03-13T05:03:24.363Z,8.94
2023-03-13T05:06:09.536Z,8.98
2023-03-13T05:08:42.692Z,8.93
2023-03-13T05:11:28.636Z,8.81
2023-03-13T05:14:28.193Z,8.70
2023-03-13T05:17:08.021Z,8.69
2023-03-13T05:19:53.855Z,8.81
2023-03-13T05:22:35.309Z,8.97
2023-03-13T05:25:25.429Z,8.96
2023-03-13T05:28:18.592Z,8.92
2023-03-13T05:30:52.091Z,8.85
2023-03-13T05:33:25.327Z,8.94
2023-03-13T05:36:11.092Z,8.85
2023-03-13T05:38:47.781Z,8.79
2023-03-13T05:41:44.279Z,8.84
2023-03-13T05:44:23.483Z,8.82
2023-03-13T05:47:18.625Z,8.81
2023-03-13T05:50:06.031Z,8.63
2023-03-13T05:52:37.633Z,8.65
2023-03-13T05:55:37.205Z,8.65
2023-03-13T05:58:36.805Z,8.70
2023-03-13T06:01:11.345Z,8.67
2023-03-13T06:03:49.458Z,8.63
2023-03-13T06:06:18.518Z,8.64
2023-03-13T06:08:53.608Z,8.78
2023-03-13T06:11:22.258Z,8.72
2023-03-13T06:13:52.084Z,8.82
2023-03-13T06:16:26.269Z,8.62
2023-03-13T06:18:57.908Z,8.64
2023-03-13T06:21:25.417Z,8.90
2023-03-13T06:23:52.757Z,8.84
2023-03-13T06:26:20.299Z,8.89
2023-03-13T06:28:48.942Z,8.89
2023-03-13T06:31:16.408Z,8.86
2023-03-13T06:33:43.717Z,8.83
2023-03-13T06:36:11.235Z,8.96
2023-03-13T06:38:39.769Z,8.98
2023-03-13T06:41:07.150Z,8.91
2023-03-13T06:43:35.038Z,8.82
2023-03-13T06:46:05.627Z,8.88
2023-03-13T06:48:33.155Z,8.94
2023-03-13T06:51:00.758Z,8.98
2023-03-13T06:53:28.231Z,8.93
2023-03-13T06:55:55.569Z,9.03
2023-03-13T06:58:32.237Z,9.12
2023-03-13T07:01:06.188Z,9.17
2023-03-13T07:03:34.111Z,9.26
2023-03-13T07:06:01.690Z,9.38
2023-03-13T07:08:29.357Z,9.48
2023-03-13T07:11:02.408Z,9.55
2023-03-13T07:13:30.085Z,9.63
2023-03-13T07:16:01.080Z,9.58
2023-03-13T07:18:28.424Z,9.57
2023-03-13T07:20:57.853Z,9.62
2023-03-13T07:23:26.930Z,9.71
2023-03-13T07:26:08.277Z,9.59
2023-03-13T07:28:37.682Z,9.70
2023-03-13T07:31:16.552Z,9.73
2023-03-13T07:33:47.926Z,9.85
2023-03-13T07:36:16.457Z,9.70
2023-03-13T07:38:48.038Z,9.64
2023-03-13T07:41:15.811Z,9.82
2023-03-13T07:43:43.361Z,9.82
2023-03-13T07:46:18.556Z,9.89
2023-03-13T07:48:47.296Z,9.97
2023-03-13T07:51:30.281Z,10.17
2023-03-13T07:54:04.443Z,10.29
2023-03-13T07:56:31.820Z,10.45
2023-03-13T07:58:59.254Z,10.48
2023-03-13T08:01:30.513Z,10.52
2023-03-13T08:04:01.178Z,10.62
2023-03-13T08:06:32.669Z,10.62
2023-03-13T08:09:01.497Z,10.54
2023-03-13T08:11:29.429Z,10.66
2023-03-13T08:13:58.678Z,10.86
2023-03-13T08:16:34.414Z,10.89
2023-03-13T08:19:06.872Z,11.07
2023-03-13T08:21:36.456Z,11.07
2023-03-13T08:24:07.029Z,11.15
2023-03-13T08:26:36.823Z,11.28
2023-03-13T08:29:08.472Z,11.50
2023-03-13T08:31:42.177Z,11.38
2023-03-13T08:34:11.952Z,11.54
2023-03-13T08:36:40.787Z,11.63
2023-03-13T08:39:12.400Z,11.80
2023-03-13T08:41:41.384Z,11.98
2023-03-13T08:44:12.130Z,12.19
2023-03-13T08:46:48.087Z,12.16
2023-03-13T08:49:17.618Z,12.19
2023-03-13T08:51:45.170Z,12.16
2023-03-13T08:54:12.636Z,12.11
2023-03-13T08:56:41.305Z,12.02
2023-03-13T08:59:08.792Z,12.06
2023-03-13T09:01:36.998Z,12.08
2023-03-13T09:04:05.718Z,12.16
2023-03-13T09:06:38.370Z,12.26
2023-03-13T09:09:07.124Z,12.43
2023-03-13T09:11:36.567Z,12.57
2023-03-13T09:14:04.002Z,12.61
2023-03-13T09:16:33.289Z,12.98
2023-03-13T09:19:01.250Z,13.12
2023-03-13T09:21:32.170Z,13.10
2023-03-13T09:24:00.697Z,13.28
2023-03-13T09:26:31.871Z,13.44
2023-03-13T09:29:16.014Z,13.43
2023-03-13T09:31:46.673Z,13.53
2023-03-13T09:34:14.129Z,13.43
2023-03-13T09:36:41.719Z,13.35
2023-03-13T09:39:09.181Z,13.31
2023-03-13T09:41:56.889Z,13.28
2023-03-13T09:44:52.575Z,13.36
2023-03-13T09:47:46.320Z,13.57
2023-03-13T09:50:20.132Z,13.49
2023-03-13T09:52:51.100Z,13.62
2023-03-13T09:55:26.306Z,13.52
2023-03-13T09:57:56.489Z,13.59
2023-03-13T10:00:48.460Z,13.71
2023-03-13T10:03:25.977Z,13.69
2023-03-13T10:05:57.836Z,13.70
2023-03-13T10:08:28.380Z,13.64
2023-03-13T10:11:11.211Z,13.81
2023-03-13T10:13:53.406Z,13.79
2023-03-13T10:16:27.356Z,13.89
2023-03-13T10:18:58.585Z,13.85
2023-03-13T10:21:34.553Z,13.84
2023-03-13T10:24:18.098Z,13.92
2023-03-13T10:26:45.732Z,13.99
2023-03-13T10:29:26.565Z,14.08
2023-03-13T10:32:04.372Z,14.10
2023-03-13T10:35:00.892Z,14.28
2023-03-13T10:37:39.910Z,14.11
2023-03-13T10:40:14.950Z,13.89
2023-03-13T10:42:46.072Z,13.88
2023-03-13T10:45:25.115Z,13.87
2023-03-13T10:47:57.486Z,13.95
2023-03-13T10:50:27.426Z,13.89
2023-03-13T10:52:55.193Z,13.90
2023-03-13T10:55:26.012Z,13.93
2023-03-13T10:58:02.422Z,13.77
2023-03-13T11:00:29.870Z,13.79
2023-03-13T11:02:57.428Z,13.82
2023-03-13T11:05:40.179Z,14.07
2023-03-13T11:08:17.514Z,13.93
2023-03-13T11:11:19.001Z,14.11
2023-03-13T11:13:46.747Z,13.99
2023-03-13T11:16:29.946Z,14.20
2023-03-13T11:19:34.384Z,14.11
2023-03-13T11:22:14.613Z,14.22
2023-03-13T11:24:49.384Z,14.47
2023-03-13T11:27:41.682Z,14.41
2023-03-13T11:30:27.738Z,14.37
2023-03-13T11:32:56.167Z,14.52
2023-03-13T11:35:44.084Z,14.41
2023-03-13T11:38:39.496Z,14.48
2023-03-13T11:41:12.965Z,14.41
2023-03-13T11:43:54.047Z,14.43
2023-03-13T11:46:43.156Z,14.25
2023-03-13T11:49:26.088Z,14.22
2023-03-13T11:52:02.253Z,14.35
2023-03-13T11:54:49.748Z,14.42
2023-03-13T11:57:32.052Z,14.42
2023-03-13T12:00:13.486Z,14.37
2023-03-13T12:02:49.854Z,14.48
2023-03-13T12:05:20.235Z,14.60
2023-03-13T12:07:54.670Z,14.39
2023-03-13T12:10:28.882Z,14.47
2023-03-13T12:13:05.943Z,14.40
2023-03-13T12:15:42.054Z,14.54
2023-03-13T12:18:22.685Z,14.72
2023-03-13T12:20:57.402Z,14.54
2023-03-13T12:23:39.697Z,14.67
2023-03-13T12:26:12.852Z,14.61
2023-03-13T12:29:06.558Z,14.66
2023-03-13T12:31:40.351Z,14.64
2023-03-13T12:34:18.492Z,14.81
2023-03-13T12:36:57.203Z,14.79
2023-03-13T12:39:37.816Z,14.91
2023-03-13T12:42:19.486Z,14.86
2023-03-13T12:44:47.232Z,14.96
2023-03-13T12:47:36.182Z,15.27
2023-03-13T12:50:24.047Z,15.33
2023-03-13T12:53:10.510Z,15.30
2023-03-13T12:56:04.991Z,15.27
2023-03-13T12:58:42.661Z,15.29
2023-03-13T13:01:33.759Z,15.22
2023-03-13T13:04:12.616Z,15.16
2023-03-13T13:07:02.597Z,15.12
2023-03-13T13:09:33.121Z,14.93
2023-03-13T13:12:23.822Z,14.79
2023-03-13T13:14:51.171Z,14.81
2023-03-13T13:17:28.123Z,14.82
2023-03-13T13:19:56.550Z,14.91
2023-03-13T13:22:39.264Z,15.00
2023-03-13T13:25:12.929Z,14.99
2023-03-13T13:27:40.306Z,15.04
2023-03-13T13:30:32.181Z,15.18
2023-03-13T13:33:18.852Z,15.13
2023-03-13T13:35:47.377Z,15.17
2023-03-13T13:38:17.761Z,15.22
2023-03-13T13:41:03.623Z,15.20
2023-03-13T13:43:34.091Z,15.26
2023-03-13T13:46:22.806Z,15.47
2023-03-13T13:49:08.341Z,15.17
2023-03-13T13:51:37.694Z,15.18
2023-03-13T13:54:33.422Z,15.29
2023-03-13T13:57:21.307Z,15.20
2023-03-13T14:00:05.670Z,15.21
2023-03-13T14:02:47.560Z,15.34
2023-03-13T14:05:22.871Z,15.30
2023-03-13T14:08:16.865Z,15.27
2023-03-13T14:10:51.228Z,15.37
2023-03-13T14:13:21.177Z,15.36
2023-03-13T14:15:52.819Z,15.38
2023-03-13T14:18:30.105Z,15.52
2023-03-13T14:20:57.384Z,15.35
2023-03-13T14:23:42.046Z,15.41
2023-03-13T14:26:23.101Z,15.35
2023-03-13T14:28:54.105Z,15.52
2023-03-13T14:31:36.144Z,15.55
2023-03-13T14:34:06.476Z,15.70
2023-03-13T14:36:49.113Z,15.61
2023-03-13T14:39:46.317Z,15.64
2023-03-13T14:42:16.083Z,15.43
2023-03-13T14:44:47.281Z,15.38
2023-03-13T14:47:30.787Z,15.42
2023-03-13T14:50:01.281Z,15.37
2023-03-13T14:52:31.260Z,15.29
2023-03-13T14:55:04.834Z,15.30
2023-03-13T14:57:35.338Z,15.30
2023-03-13T15:00:26.410Z,15.27
2023-03-13T15:03:21.960Z,15.25
2023-03-13T15:06:02.417Z,15.30
2023-03-13T15:08:30.429Z,15.38
2023-03-13T15:10:58.544Z,15.38
2023-03-13T15:13:32.864Z,15.35
2023-03-13T15:16:01.074Z,15.42
2023-03-13T15:18:31.081Z,15.40
2023-03-13T15:21:17.415Z,15.34
2023-03-13T15:23:52.864Z,15.28
2023-03-13T15:26:20.307Z,15.18
2023-03-13T15:28:48.282Z,15.12
2023-03-13T15:31:15.935Z,15.09
2023-03-13T15:33:43.963Z,15.09
2023-03-13T15:36:12.158Z,15.14
2023-03-13T15:38:43.630Z,15.11
2023-03-13T15:41:11.036Z,15.04
2023-03-13T15:43:38.648Z,15.13
2023-03-13T15:46:14.856Z,15.12
2023-03-13T15:48:42.304Z,15.21
2023-03-13T15:51:12.499Z,15.21
2023-03-13T15:53:44.350Z,15.18
2023-03-13T15:56:20.862Z,15.16
2023-03-13T15:58:49.562Z,15.25
2023-03-13T16:01:30.549Z,15.18
2023-03-13T16:03:58.303Z,15.16
2023-03-13T16:06:31.420Z,15.09
2023-03-13T16:09:00.645Z,15.08
2023-03-13T16:11:29.515Z,14.99
2023-03-13T16:13:57.615Z,14.99
2023-03-13T16:16:30.341Z,14.97
2023-03-13T16:18:59.383Z,14.91
2023-03-13T16:21:29.634Z,14.82
2023-03-13T16:23:57.400Z,14.90
2023-03-13T16:26:28.011Z,14.75
2023-03-13T16:28:55.581Z,14.72
2023-03-13T16:31:25.865Z,14.69
2023-03-13T16:33:54.774Z,14.70
2023-03-13T16:36:24.870Z,14.79
2023-03-13T16:38:52.837Z,14.70
2023-03-13T16:41:22.217Z,14.68
2023-03-13T16:43:50.669Z,14.54
2023-03-13T16:46:20.593Z,14.50
2023-03-13T16:48:50.118Z,14.44
2023-03-13T16:51:23.399Z,14.47
2023-03-13T16:53:53.459Z,14.45
2023-03-13T16:56:31.692Z,14.41
2023-03-13T16:59:00.888Z,14.37
2023-03-13T17:01:29.129Z,14.41
2023-03-13T17:03:58.555Z,14.37
2023-03-13T17:06:28.520Z,14.27
2023-03-13T17:08:56.649Z,14.35
2023-03-13T17:11:25.417Z,14.28
2023-03-13T17:13:53.577Z,14.37
2023-03-13T17:16:25.516Z,14.38
2023-03-13T17:18:53.843Z,14.31
2023-03-13T17:21:24.080Z,14.31
2023-03-13T17:23:51.993Z,14.36
2023-03-13T17:26:25.810Z,14.37
2023-03-13T17:28:56.422Z,14.26
2023-03-13T17:31:25.942Z,14.32
2023-03-13T17:33:53.885Z,14.27
2023-03-13T17:36:27.355Z,14.30
2023-03-13T17:38:57.496Z,14.31
2023-03-13T17:41:28.119Z,14.30
2023-03-13T17:43:56.290Z,14.39
2023-03-13T17:46:24.841Z,14.39
2023-03-13T17:48:53.806Z,14.37
2023-03-13T17:51:26.682Z,14.32
2023-03-13T17:53:55.080Z,14.37
2023-03-13T17:56:25.927Z,14.37
2023-03-13T17:58:57.680Z,14.39
2023-03-13T18:01:27.911Z,14.31
2023-03-13T18:03:56.286Z,14.29
2023-03-13T18:06:31.364Z,14.35
2023-03-13T18:09:08.143Z,14.20
2023-03-13T18:11:38.885Z,14.30
2023-03-13T18:14:06.680Z,14.29
2023-03-13T18:16:37.722Z,14.31
2023-03-13T18:19:06.972Z,14.39
2023-03-13T18:21:35.192Z,14.33
2023-03-13T18:24:02.874Z,14.29
2023-03-13T18:26:33.544Z,14.25
2023-03-13T18:29:03.675Z,14.32
2023-03-13T18:31:38.080Z,14.29
2023-03-13T18:34:05.497Z,14.30
2023-03-13T18:36:33.318Z,14.33
2023-03-13T18:39:00.722Z,14.24
2023-03-13T18:41:28.754Z,14.27
2023-03-13T18:43:56.159Z,14.29
2023-03-13T18:46:30.036Z,14.28
2023-03-13T18:48:58.539Z,14.20
2023-03-13T18:51:26.609Z,14.30
2023-03-13T18:53:55.283Z,14.40
2023-03-13T18:56:25.460Z,14.34
2023-03-13T18:58:54.636Z,14.22
2023-03-13T19:01:25.536Z,14.10
2023-03-13T19:03:53.385Z,14.14
2023-03-13T19:06:20.737Z,14.20
2023-03-13T19:08:49.793Z,14.04
2023-03-13T19:11:22.069Z,13.88
2023-03-13T19:13:49.613Z,13.78
2023-03-13T19:16:23.741Z,13.64
2023-03-13T19:18:54.553Z,13.55
2023-03-13T19:21:24.829Z,13.32
2023-03-13T19:23:53.203Z,13.42
2023-03-13T19:26:30.872Z,13.35
2023-03-13T19:28:59.602Z,13.20
2023-03-13T19:31:27.656Z,13.04
2023-03-13T19:33:55.346Z,13.16
2023-03-13T19:36:24.268Z,13.21
2023-03-13T19:38:51.740Z,13.14
2023-03-13T19:41:19.221Z,13.06
2023-03-13T19:43:47.956Z,13.05
2023-03-13T19:46:20.538Z,13.03
2023-03-13T19:48:48.342Z,13.09
2023-03-13T19:51:15.794Z,13.04
2023-03-13T19:53:43.375Z,13.08
2023-03-13T19:56:20.621Z,13.12
2023-03-13T19:58:50.111Z,13.04
2023-03-13T20:01:18.290Z,13.07
2023-03-13T20:03:46.438Z,13.09
2023-03-13T20:06:29.624Z,12.96
2023-03-13T20:09:02.279Z,13.10
2023-03-13T20:11:31.908Z,13.00
2023-03-13T20:13:59.646Z,12.97
2023-03-13T20:16:30.071Z,12.86
2023-03-13T20:18:59.535Z,12.87
2023-03-13T20:21:32.729Z,12.85
2023-03-13T20:24:00.591Z,12.79
2023-03-13T20:26:29.317Z,12.79
2023-03-13T20:28:58.013Z,12.78
2023-03-13T20:31:28.975Z,12.70
2023-03-13T20:33:57.643Z,12.70
2023-03-13T20:36:25.819Z,12.67
2023-03-13T20:38:53.779Z,12.75
2023-03-13T20:41:25.025Z,12.71
2023-03-13T20:43:53.397Z,12.89
2023-03-13T20:46:21.806Z,12.78
2023-03-13T20:48:49.960Z,12.78
2023-03-13T20:51:17.542Z,12.70
2023-03-13T20:53:45.289Z,12.73
2023-03-13T20:56:12.857Z,12.59
2023-03-13T20:58:40.823Z,12.61
2023-03-13T21:01:08.662Z,12.66
2023-03-13T21:03:36.447Z,12.60
2023-03-13T21:06:11.726Z,12.71
2023-03-13T21:08:39.505Z,12.56
2023-03-13T21:11:15.660Z,12.51
2023-03-13T21:13:43.464Z,12.65
2023-03-13T21:16:11.322Z,12.68
2023-03-13T21:18:39.105Z,12.71
2023-03-13T21:21:09.515Z,12.78
2023-03-13T21:23:38.051Z,12.68
2023-03-13T21:26:05.723Z,12.66
2023-03-13T21:28:33.704Z,12.63
2023-03-13T21:31:12.233Z,12.65
2023-03-13T21:33:41.308Z,12.73
2023-03-13T21:36:10.199Z,12.75
2023-03-13T21:38:38.193Z,12.58
2023-03-13T21:41:10.559Z,12.63
2023-03-13T21:43:41.430Z,12.67
2023-03-13T21:46:10.560Z,12.74
2023-03-13T21:48:39.206Z,12.63
2023-03-13T21:51:07.442Z,12.41
2023-03-13T21:53:35.786Z,12.39
2023-03-13T21:56:04.293Z,12.50
2023-03-13T21:58:31.725Z,12.44
2023-03-13T22:00:59.318Z,12.48
2023-03-13T22:03:26.873Z,12.51
2023-03-13T22:05:54.534Z,12.51
2023-03-13T22:08:22.201Z,12.48
2023-03-13T22:10:51.093Z,12.45
2023-03-13T22:13:18.760Z,12.33
2023-03-13T22:15:46.863Z,12.31
2023-03-13T22:18:15.243Z,12.47
2023-03-13T22:20:43.675Z,12.28
2023-03-13T22:23:12.143Z,12.33
2023-03-13T22:25:42.398Z,12.12
2023-03-13T22:28:10.918Z,12.24
2023-03-13T22:30:39.644Z,12.22
2023-03-13T22:33:08.053Z,12.26
2023-03-13T22:35:37.637Z,12.32
2023-03-13T22:38:30.663Z,12.29
2023-03-13T22:41:07.015Z,12.16
2023-03-13T22:43:35.191Z,12.13
2023-03-13T22:46:04.536Z,12.18
2023-03-13T22:48:32.101Z,12.17
2023-03-13T22:51:01.995Z,12.23
2023-03-13T22:53:31.006Z,12.17
2023-03-13T22:55:58.598Z,12.15
2023-03-13T22:58:26.882Z,12.16
2023-03-13T23:00:55.082Z,12.08
2023-03-13T23:03:22.967Z,12.07
2023-03-13T23:05:50.301Z,12.06
2023-03-13T23:08:18.539Z,12.01
2023-03-13T23:10:47.354Z,12.07
2023-03-13T23:13:15.426Z,12.08
2023-03-13T23:15:58.459Z,12.24
2023-03-13T23:18:27.128Z,12.18
2023-03-13T23:20:54.505Z,12.05
2023-03-13T23:23:22.187Z,12.04
2023-03-13T23:25:49.943Z,11.89
2023-03-13T23:28:17.313Z,12.00
2023-03-13T23:30:44.644Z,11.96
2023-03-13T23:33:11.912Z,11.86
2023-03-13T23:35:39.236Z,11.93
2023-03-13T23:38:39.298Z,11.84
2023-03-13T23:41:12.463Z,11.99
2023-03-13T23:43:40.625Z,12.09
2023-03-13T23:46:22.748Z,11.90
2023-03-13T23:48:58.172Z,11.92
2023-03-13T23:51:26.131Z,11.81
2023-03-13T23:53:53.572Z,11.75
2023-03-13T23:56:21.062Z,11.81
2023-03-13T23:58:48.440Z,11.63
